Time;durP1;ratioP1;P1;durP2;ratioP2;P2;SDS_P1;SDS_P2;PMS_P1;PMS_P2;Temp;Humidity;BMP_temperature;BMP_pressure;BME280_temperature;BME280_humidity;BME280_pressure;Samples;Min_cycle;Max_cycle;Signal;HPM_P1;HPM_P2
2024/03/25 00:00:45;;;;;;;;;;;;;;;;;;5020689;28;20386;-50
2024/03/25 00:03:11;;;;;;;;;;;;;;;;;;5032526;28;19967;-50
2024/03/25 00:05:37;;;;;;;;;;;;;;;;;;5019639;28;19913;-51
2024/03/25 00:08:03;;;;;;;;;;;;;;;;;;5013606;28;19916;-50
2024/03/25 00:10:29;;;;;;;;;;;;;;;;;;5026521;28;19913;-51
2024/03/25 00:12:56;;;;;;;;;;;;;;;;;;5031973;28;20317;-50
2024/03/25 00:15:23;;;;;;;;;;;;;;;;;;5028401;28;19932;-53
2024/03/25 00:17:49;;;;;;;;;;;;;;;;;;5012680;28;19913;-53
2024/03/25 00:20:15;;;;;;;;;;;;;;;;;;5032051;28;19921;-54
2024/03/25 00:22:41;;;;;;;;;;;;;;;;;;5028999;28;20096;-55
2024/03/25 00:25:08;;;;;;;;;;;;;;;;;;5028182;28;19913;-51
2024/03/25 00:27:34;;;;;;;;;;;;;;;;;;5030553;28;20007;-47
2024/03/25 00:30:00;;;;;;;;;;;;;;;;;;5031978;28;19913;-49
2024/03/25 00:32:26;;;;;;;;;;;;;;;;;;5012674;28;19914;-47
2024/03/25 00:34:52;;;;;;;;;;;;;;;;;;5025466;28;19936;-50
2024/03/25 00:37:18;;;;;;;;;;;;;;;;;;5023824;28;19913;-47
2024/03/25 00:39:45;;;;;;;;;;;;;;;;;;5012379;28;19925;-49
2024/03/25 00:42:12;;;;;;;;;;;;;;;;;;5011257;28;19915;-48
2024/03/25 00:44:38;;;;;;;;;;;;;;;;;;5022948;28;20015;-48
2024/03/25 00:47:04;;;;;;;;;;;;;;;;;;5010426;28;19914;-49
2024/03/25 00:49:30;;;;;;;;;;;;;;;;;;5028682;28;19920;-50
2024/03/25 00:51:56;;;;;;;;;;;;;;;;;;5013947;28;19949;-51
2024/03/25 00:54:23;;;;;;;;;;;;;;;;;;5019238;28;19913;-50
2024/03/25 00:56:49;;;;;;;;;;;;;;;;;;5031704;28;20282;-49
2024/03/25 00:59:16;;;;;;;;;;;;;;;;;;5024585;28;19927;-48
2024/03/25 01:01:42;;;;;;;;;;;;;;;;;;5012164;28;20098;-49
2024/03/25 01:04:08;;;;;;;;;;;;;;;;;;5012223;28;19913;-49
2024/03/25 01:06:34;;;;;;;;;;;;;;;;;;5012498;28;19910;-48
2024/03/25 01:09:00;;;;;;;;;;;;;;;;;;5011921;28;19928;-50
2024/03/25 01:11:26;;;;;;;;;;;;;;;;;;5019154;28;19920;-49
2024/03/25 01:13:53;;;;;;;;;;;;;;;;;;5031842;28;19913;-50
2024/03/25 01:16:19;;;;;;;;;;;;;;;;;;5031817;28;19909;-47
2024/03/25 01:18:45;;;;;;;;;;;;;;;;;;5031568;28;19928;-48
2024/03/25 01:21:11;;;;;;;;;;;;;;;;;;5034753;28;19979;-49
2024/03/25 01:23:37;;;;;;;;;;;;;;;;;;5035489;28;19959;-49
2024/03/25 01:26:03;;;;;;;;;;;;;;;;;;5035477;28;20378;-50
2024/03/25 01:28:29;;;;;;;;;;;;;;;;;;5035252;28;20008;-50
2024/03/25 01:30:55;;;;;;;;;;;;;;;;;;5035370;28;19913;-48
2024/03/25 01:33:21;;;;;;;;;;;;;;;;;;5034076;28;19917;-48
2024/03/25 01:35:48;;;;;;;;;;;;;;;;;;5035418;28;19913;-49
2024/03/25 01:38:14;;;;;;;;;;;;;;;;;;5033798;28;19913;-49
2024/03/25 01:40:40;;;;;;;;;;;;;;;;;;5033900;28;19920;-51
2024/03/25 01:43:06;;;;;;;;;;;;;;;;;;5035334;28;19920;-51
2024/03/25 01:45:32;;;;;;;;;;;;;;;;;;5035485;28;19909;-51
2024/03/25 01:47:58;;;;;;;;;;;;;;;;;;5027596;28;19921;-48
2024/03/25 01:50:24;;;;;;;;;;;;;;;;;;5015273;28;19910;-51
2024/03/25 01:52:50;;;;;;;;;;;;;;;;;;5015195;28;19920;-48
2024/03/25 01:55:16;;;;;;;;;;;;;;;;;;5016547;28;19917;-48
2024/03/25 01:57:42;;;;;;;;;;;;;;;;;;5013572;28;19925;-48
2024/03/25 02:00:09;;;;;;;;;;;;;;;;;;5016447;28;19960;-53
2024/03/25 02:02:46;;;;;;;;;;;;;;;;;;5028905;28;19917;-49
2024/03/25 02:05:12;;;;;;;;;;;;;;;;;;5030409;28;19918;-48
2024/03/25 02:07:41;;;;;;;;;;;;;;;;;;5013312;28;19978;-48
2024/03/25 02:10:07;;;;;;;;;;;;;;;;;;5017106;28;19996;-48
2024/03/25 02:12:33;;;;;;;;;;;;;;;;;;5024614;28;19910;-49
2024/03/25 02:14:59;;;;;;;;;;;;;;;;;;5014898;28;19920;-48
2024/03/25 02:17:25;;;;;;;;;;;;;;;;;;5026960;28;19920;-49
2024/03/25 02:19:51;;;;;;;;;;;;;;;;;;5034392;28;19924;-51
2024/03/25 02:22:17;;;;;;;;;;;;;;;;;;5034403;28;19958;-50
2024/03/25 02:24:43;;;;;;;;;;;;;;;;;;5034407;28;20004;-49
2024/03/25 02:27:14;;;;;;;;;;;;;;;;;;5034219;28;19909;-48
2024/03/25 02:29:40;;;;;;;;;;;;;;;;;;5021137;28;19913;-49
2024/03/25 02:32:06;;;;;;;;;;;;;;;;;;5013740;28;19967;-50
2024/03/25 02:34:32;;;;;;;;;;;;;;;;;;5014304;28;20404;-48
2024/03/25 02:36:58;;;;;;;;;;;;;;;;;;5013247;28;20345;-47
2024/03/25 02:39:25;;;;;;;;;;;;;;;;;;5014298;28;19917;-50
2024/03/25 02:41:51;;;;;;;;;;;;;;;;;;5014370;28;19909;-49
2024/03/25 02:44:17;;;;;;;;;;;;;;;;;;5014213;28;19920;-48
2024/03/25 02:46:43;;;;;;;;;;;;;;;;;;5014254;28;19910;-49
2024/03/25 02:49:09;;;;;;;;;;;;;;;;;;5013934;28;19956;-50
2024/03/25 02:51:35;;;;;;;;;;;;;;;;;;5014119;28;20385;-48
2024/03/25 02:54:01;;;;;;;;;;;;;;;;;;5014075;28;19914;-48
2024/03/25 02:56:27;;;;;;;;;;;;;;;;;;5013892;28;20420;-51
2024/03/25 02:58:54;;;;;;;;;;;;;;;;;;5013800;28;19965;-49
2024/03/25 03:01:20;;;;;;;;;;;;;;;;;;5013953;28;19972;-50
2024/03/25 03:03:46;;;;;;;;;;;;;;;;;;5013783;28;19967;-47
2024/03/25 03:06:12;;;;;;;;;;;;;;;;;;5026848;28;19910;-48
2024/03/25 03:08:38;;;;;;;;;;;;;;;;;;5033545;28;19983;-50
2024/03/25 03:11:04;;;;;;;;;;;;;;;;;;5033620;28;19996;-48
2024/03/25 03:13:30;;;;;;;;;;;;;;;;;;5020906;28;19913;-49
2024/03/25 03:15:56;;;;;;;;;;;;;;;;;;5024230;28;19936;-50
2024/03/25 03:18:22;;;;;;;;;;;;;;;;;;5014799;28;19913;-48
2024/03/25 03:20:49;;;;;;;;;;;;;;;;;;5024922;28;19909;-49
2024/03/25 03:23:15;;;;;;;;;;;;;;;;;;5013594;28;20043;-48
2024/03/25 03:25:41;;;;;;;;;;;;;;;;;;5024763;28;19909;-48
2024/03/25 03:28:07;;;;;;;;;;;;;;;;;;5031750;28;19921;-50
2024/03/25 03:30:33;;;;;;;;;;;;;;;;;;5033179;28;19909;-48
2024/03/25 03:32:59;;;;;;;;;;;;;;;;;;5032899;28;19913;-49
2024/03/25 03:35:25;;;;;;;;;;;;;;;;;;5033064;28;19952;-50
2024/03/25 03:37:52;;;;;;;;;;;;;;;;;;5020288;28;20390;-49
2024/03/25 03:40:18;;;;;;;;;;;;;;;;;;5013380;28;19936;-49
2024/03/25 03:42:44;;;;;;;;;;;;;;;;;;5011669;28;19913;-49
2024/03/25 03:45:10;;;;;;;;;;;;;;;;;;5013132;28;19909;-50
2024/03/25 03:47:36;;;;;;;;;;;;;;;;;;5012692;28;20008;-53
2024/03/25 03:50:02;;;;;;;;;;;;;;;;;;5013309;28;19963;-50
2024/03/25 03:52:28;;;;;;;;;;;;;;;;;;5012854;28;19919;-47
2024/03/25 03:54:54;;;;;;;;;;;;;;;;;;5021820;28;20453;-48
2024/03/25 03:57:20;;;;;;;;;;;;;;;;;;5032319;28;20297;-48
2024/03/25 03:59:46;;;;;;;;;;;;;;;;;;5013243;28;19918;-49
2024/03/25 04:02:13;;;;;;;;;;;;;;;;;;5029132;28;19955;-49
2024/03/25 04:04:40;;;;;;;;;;;;;;;;;;5025011;28;19920;-50
2024/03/25 04:07:06;;;;;;;;;;;;;;;;;;5012768;28;19913;-48
2024/03/25 04:09:32;;;;;;;;;;;;;;;;;;5012573;28;19917;-52
2024/03/25 04:12:00;;;;;;;;;;;;;;;;;;5014502;28;19913;-51
2024/03/25 04:14:26;;;;;;;;;;;;;;;;;;5019608;28;19913;-47
2024/03/25 04:16:53;;;;;;;;;;;;;;;;;;5032210;28;20370;-48
2024/03/25 04:19:19;;;;;;;;;;;;;;;;;;5022220;28;20011;-50
2024/03/25 04:21:46;;;;;;;;;;;;;;;;;;5011369;28;19985;-48
2024/03/25 04:24:12;;;;;;;;;;;;;;;;;;5012666;28;19925;-48
2024/03/25 04:26:38;;;;;;;;;;;;;;;;;;5012449;28;19919;-48
2024/03/25 04:29:04;;;;;;;;;;;;;;;;;;5021376;28;19975;-49
2024/03/25 04:31:30;;;;;;;;;;;;;;;;;;5020290;28;20378;-48
2024/03/25 04:33:56;;;;;;;;;;;;;;;;;;5016962;28;20004;-50
2024/03/25 04:36:22;;;;;;;;;;;;;;;;;;5032459;28;19959;-47
2024/03/25 04:38:49;;;;;;;;;;;;;;;;;;5030696;28;19972;-48
2024/03/25 04:41:16;;;;;;;;;;;;;;;;;;5014383;28;19964;-47
2024/03/25 04:43:42;;;;;;;;;;;;;;;;;;5021362;28;19991;-51
2024/03/25 04:46:08;;;;;;;;;;;;;;;;;;5023241;28;20004;-49
2024/03/25 04:48:34;;;;;;;;;;;;;;;;;;5012152;28;19992;-49
2024/03/25 04:51:00;;;;;;;;;;;;;;;;;;5012302;28;19914;-45
2024/03/25 04:53:26;;;;;;;;;;;;;;;;;;5013371;28;19909;-48
2024/03/25 04:55:52;;;;;;;;;;;;;;;;;;5014220;28;19923;-48
2024/03/25 04:58:20;;;;;;;;;;;;;;;;;;5064364;23;19946;-53
2024/03/25 05:00:46;;;;;;;;;;;;;;;;;;5055230;28;19924;-53
2024/03/25 05:03:13;;;;;;;;;;;;;;;;;;5055957;28;19916;-49
2024/03/25 05:05:39;;;;;;;;;;;;;;;;;;5056005;28;19916;-53
2024/03/25 05:08:05;;;;;;;;;;;;;;;;;;5055676;28;19916;-52
2024/03/25 05:10:31;;;;;;;;;;;;;;;;;;5055843;28;20389;-53
2024/03/25 05:12:57;;;;;;;;;;;;;;;;;;5037784;28;20308;-53
2024/03/25 05:15:24;;;;;;;;;;;;;;;;;;5055786;28;19912;-53
2024/03/25 05:17:54;;;;;;;;;;;;;;;;;;5038765;28;20322;-50
2024/03/25 05:20:21;;;;;;;;;;;;;;;;;;5055597;28;20262;-50
2024/03/25 05:22:48;;;;;;;;;;;;;;;;;;5055588;28;19909;-51
2024/03/25 05:25:14;;;;;;;;;;;;;;;;;;5055614;28;19912;-50
2024/03/25 05:27:40;;;;;;;;;;;;;;;;;;5055221;28;19987;-50
2024/03/25 05:30:06;;;;;;;;;;;;;;;;;;5037695;28;19958;-53
2024/03/25 05:32:32;;;;;;;;;;;;;;;;;;5055290;28;20360;-49
2024/03/25 05:34:58;;;;;;;;;;;;;;;;;;5055408;28;19955;-53
2024/03/25 05:37:24;;;;;;;;;;;;;;;;;;5055103;28;20315;-49
2024/03/25 05:39:50;;;;;;;;;;;;;;;;;;5055237;28;20319;-53
2024/03/25 05:42:16;;;;;;;;;;;;;;;;;;5055230;28;19913;-50
2024/03/25 05:44:43;;;;;;;;;;;;;;;;;;5037325;28;20288;-52
2024/03/25 05:47:09;;;;;;;;;;;;;;;;;;5055033;28;20039;-53
2024/03/25 05:49:35;;;;;;;;;;;;;;;;;;5055238;28;19973;-53
2024/03/25 05:52:02;;;;;;;;;;;;;;;;;;5055151;28;20234;-53
2024/03/25 05:54:28;;;;;;;;;;;;;;;;;;5054969;28;20005;-51
2024/03/25 05:56:54;;;;;;;;;;;;;;;;;;5054730;28;19978;-49
2024/03/25 05:59:20;;;;;;;;;;;;;;;;;;5054716;28;20365;-51
2024/03/25 06:01:47;;;;;;;;;;;;;;;;;;5054844;28;19916;-50
2024/03/25 06:04:14;;;;;;;;;;;;;;;;;;5054842;28;19917;-50
2024/03/25 06:06:40;;;;;;;;;;;;;;;;;;5054556;28;19951;-50
2024/03/25 06:09:06;;;;;;;;;;;;;;;;;;5054559;28;19952;-49
2024/03/25 06:11:32;;;;;;;;;;;;;;;;;;5054670;28;19909;-50
2024/03/25 06:13:58;;;;;;;;;;;;;;;;;;5054772;28;19963;-51
2024/03/25 06:16:24;;;;;;;;;;;;;;;;;;5054828;28;19975;-51
2024/03/25 06:18:52;;;;;;;;;;;;;;;;;;5054313;28;20381;-51
2024/03/25 06:21:18;;;;;;;;;;;;;;;;;;5054502;28;19909;-52
2024/03/25 06:23:44;;;;;;;;;;;;;;;;;;5054392;28;20556;-52
2024/03/25 06:26:10;;;;;;;;;;;;;;;;;;5054510;28;19909;-53
2024/03/25 06:28:38;;;;;;;;;;;;;;;;;;5054213;28;19991;-48
2024/03/25 06:36:35;;;;;;;;;;;;;;;;;;5053342;28;19952;-47
2024/03/25 06:39:01;;;;;;;;;;;;;;;;;;5053805;28;19963;-48
2024/03/25 06:41:27;;;;;;;;;;;;;;;;;;5054163;28;20004;-48
2024/03/25 06:43:54;;;;;;;;;;;;;;;;;;5052816;28;19912;-52
2024/03/25 06:46:21;;;;;;;;;;;;;;;;;;5054078;28;20012;-52
2024/03/25 06:48:47;;;;;;;;;;;;;;;;;;5053687;28;19909;-52
2024/03/25 06:51:13;;;;;;;;;;;;;;;;;;5053929;28;20391;-49
2024/03/25 06:53:39;;;;;;;;;;;;;;;;;;5054094;28;19909;-49
2024/03/25 06:56:05;;;;;;;;;;;;;;;;;;5053967;28;19945;-52
2024/03/25 06:58:32;;;;;;;;;;;;;;;;;;5053376;28;19920;-52
2024/03/25 07:00:58;;;;;;;;;;;;;;;;;;5053799;28;20365;-50
2024/03/25 07:03:24;;;;;;;;;;;;;;;;;;5052300;28;20276;-49
2024/03/25 07:05:52;;;;;;;;;;;;;;;;;;5025664;28;19917;-50
2024/03/25 07:08:22;;;;;;;;;;;;;;;;;;5053427;28;19916;-51
2024/03/25 07:10:48;;;;;;;;;;;;;;;;;;5035818;28;19912;-52
2024/03/25 07:13:14;;;;;;;;;;;;;;;;;;5053517;28;20003;-52
2024/03/25 07:15:40;;;;;;;;;;;;;;;;;;5053552;28;20001;-52
2024/03/25 07:18:06;;;;;;;;;;;;;;;;;;5052548;28;20257;-48
2024/03/25 07:20:32;;;;;;;;;;;;;;;;;;5053300;28;19916;-53
2024/03/25 07:22:58;;;;;;;;;;;;;;;;;;5053348;28;20026;-51
2024/03/25 07:25:24;;;;;;;;;;;;;;;;;;5053309;28;19913;-52
2024/03/25 07:27:50;;;;;;;;;;;;;;;;;;5053025;28;19912;-52
2024/03/25 07:30:16;;;;;;;;;;;;;;;;;;5058396;28;19944;-52
2024/03/25 07:32:45;;;;;;;;;;;;;;;;;;5073265;28;19912;-51
2024/03/25 07:35:11;;;;;;;;;;;;;;;;;;5046852;28;19963;-48
2024/03/25 07:37:37;;;;;;;;;;;;;;;;;;5052789;28;19913;-50
2024/03/25 07:40:06;;;;;;;;;;;;;;;;;;5035155;28;20316;-51
2024/03/25 07:42:32;;;;;;;;;;;;;;;;;;5052955;28;19909;-50
2024/03/25 07:44:58;;;;;;;;;;;;;;;;;;5034946;28;19913;-53
2024/03/25 07:47:24;;;;;;;;;;;;;;;;;;5052653;28;19966;-53
2024/03/25 07:49:50;;;;;;;;;;;;;;;;;;5053194;28;20348;-49
2024/03/25 07:52:16;;;;;;;;;;;;;;;;;;5052870;28;19916;-52
2024/03/25 07:54:43;;;;;;;;;;;;;;;;;;5052835;28;19949;-52
2024/03/25 07:57:09;;;;;;;;;;;;;;;;;;5052181;28;19913;-49
2024/03/25 07:59:35;;;;;;;;;;;;;;;;;;5034769;28;19917;-51
2024/03/25 08:02:01;;;;;;;;;;;;;;;;;;5052598;28;20353;-50
2024/03/25 08:04:27;;;;;;;;;;;;;;;;;;5052568;28;19913;-51
2024/03/25 08:06:53;;;;;;;;;;;;;;;;;;5034698;28;19909;-50
2024/03/25 08:09:19;;;;;;;;;;;;;;;;;;5052398;28;19959;-49
2024/03/25 08:11:46;;;;;;;;;;;;;;;;;;5052459;28;19909;-52
2024/03/25 08:14:12;;;;;;;;;;;;;;;;;;5052510;28;20015;-49
2024/03/25 08:16:38;;;;;;;;;;;;;;;;;;5052277;28;19909;-50
2024/03/25 08:19:04;;;;;;;;;;;;;;;;;;5052223;28;19920;-50
2024/03/25 08:21:30;;;;;;;;;;;;;;;;;;5066216;28;19994;-49
2024/03/25 08:23:56;;;;;;;;;;;;;;;;;;5072243;28;19912;-51
2024/03/25 08:26:22;;;;;;;;;;;;;;;;;;5072380;28;19909;-53
2024/03/25 08:28:49;;;;;;;;;;;;;;;;;;5053815;28;20030;-51
2024/03/25 08:31:15;;;;;;;;;;;;;;;;;;5071734;28;19908;-53
2024/03/25 08:33:41;;;;;;;;;;;;;;;;;;5072180;28;19962;-54
2024/03/25 08:36:07;;;;;;;;;;;;;;;;;;5072188;28;19916;-50
2024/03/25 08:38:33;;;;;;;;;;;;;;;;;;5054014;28;19913;-53
2024/03/25 08:40:59;;;;;;;;;;;;;;;;;;5054167;28;19939;-52
2024/03/25 08:43:26;;;;;;;;;;;;;;;;;;5072113;28;19913;-49
2024/03/25 08:45:52;;;;;;;;;;;;;;;;;;5072073;28;19915;-51
2024/03/25 08:48:18;;;;;;;;;;;;;;;;;;5072226;28;19912;-50
2024/03/25 08:50:44;;;;;;;;;;;;;;;;;;5072233;28;19909;-50
2024/03/25 08:53:10;;;;;;;;;;;;;;;;;;5072116;28;20004;-49
2024/03/25 08:55:36;;;;;;;;;;;;;;;;;;5072104;28;19908;-53
2024/03/25 08:58:02;;;;;;;;;;;;;;;;;;5071592;28;19960;-49
2024/03/25 09:00:28;;;;;;;;;;;;;;;;;;5071820;28;19963;-49
2024/03/25 09:02:55;;;;;;;;;;;;;;;;;;5071922;28;19952;-48
2024/03/25 09:05:21;;;;;;;;;;;;;;;;;;5071915;28;19909;-51
2024/03/25 09:07:49;;;;;;;;;;;;;;;;;;5071715;28;20400;-49
2024/03/25 09:13:00;;;;;;;;;;;;;;;;;;5071893;28;20346;-49
2024/03/25 09:15:26;;;;;;;;;;;;;;;;;;5053878;28;19909;-53
2024/03/25 09:17:52;;;;;;;;;;;;;;;;;;5071572;28;19913;-49
2024/03/25 09:20:20;;;;;;;;;;;;;;;;;;5071566;28;19912;-49
2024/03/25 09:22:48;;;;;;;;;;;;;;;;;;5071685;28;19912;-53
2024/03/25 09:25:14;;;;;;;;;;;;;;;;;;5071658;28;20395;-51
2024/03/25 09:27:40;;;;;;;;;;;;;;;;;;5071355;28;19920;-53
2024/03/25 09:30:08;;;;;;;;;;;;;;;;;;5071921;28;19998;-49
2024/03/25 09:32:35;;;;;;;;;;;;;;;;;;5071690;28;19965;-53
2024/03/25 09:35:01;;;;;;;;;;;;;;;;;;5071655;28;19959;-48
2024/03/25 09:37:27;;;;;;;;;;;;;;;;;;5071381;28;20407;-49
2024/03/25 09:39:54;;;;;;;;;;;;;;;;;;5071384;28;19935;-47
2024/03/25 09:42:20;;;;;;;;;;;;;;;;;;5074564;28;19917;-47
2024/03/25 09:44:46;;;;;;;;;;;;;;;;;;5057335;28;19908;-50
2024/03/25 09:47:12;;;;;;;;;;;;;;;;;;5074891;28;20411;-49
2024/03/25 09:49:38;;;;;;;;;;;;;;;;;;5075150;28;19930;-50
2024/03/25 09:52:04;;;;;;;;;;;;;;;;;;5074930;28;20333;-49
2024/03/25 09:54:30;;;;;;;;;;;;;;;;;;5056932;28;19917;-50
2024/03/25 09:56:56;;;;;;;;;;;;;;;;;;5056867;28;19912;-49
2024/03/25 09:59:23;;;;;;;;;;;;;;;;;;5056767;28;19912;-49
2024/03/25 10:01:50;;;;;;;;;;;;;;;;;;5074871;28;20029;-53
2024/03/25 10:04:16;;;;;;;;;;;;;;;;;;5074855;28;19915;-49
2024/03/25 10:06:43;;;;;;;;;;;;;;;;;;5074556;28;19912;-52
2024/03/25 10:09:09;;;;;;;;;;;;;;;;;;5074421;28;19916;-54
2024/03/25 10:11:35;;;;;;;;;;;;;;;;;;5074574;28;19936;-50
2024/03/25 10:14:01;;;;;;;;;;;;;;;;;;5056652;28;20357;-49
2024/03/25 10:16:27;;;;;;;;;;;;;;;;;;5074599;28;19912;-51
2024/03/25 10:18:53;;;;;;;;;;;;;;;;;;5074260;28;19932;-53
2024/03/25 10:21:19;;;;;;;;;;;;;;;;;;5056473;28;19913;-47
2024/03/25 10:23:47;;;;;;;;;;;;;;;;;;5074313;28;19908;-47
2024/03/25 10:26:13;;;;;;;;;;;;;;;;;;5074492;28;19912;-50
2024/03/25 10:28:39;;;;;;;;;;;;;;;;;;5074183;28;19908;-50
2024/03/25 10:31:06;;;;;;;;;;;;;;;;;;5074311;28;19912;-49
2024/03/25 10:33:32;;;;;;;;;;;;;;;;;;5039735;28;19915;-50
2024/03/25 10:35:58;;;;;;;;;;;;;;;;;;5056484;28;19913;-47
2024/03/25 10:38:24;;;;;;;;;;;;;;;;;;5074085;28;20288;-50
2024/03/25 10:40:52;;;;;;;;;;;;;;;;;;5056244;28;19920;-50
2024/03/25 10:43:18;;;;;;;;;;;;;;;;;;5074075;28;19913;-52
2024/03/25 10:45:44;;;;;;;;;;;;;;;;;;5074106;28;19912;-50
2024/03/25 10:48:11;;;;;;;;;;;;;;;;;;5073749;28;20364;-47
2024/03/25 10:50:37;;;;;;;;;;;;;;;;;;5073912;28;20409;-51
2024/03/25 10:53:03;;;;;;;;;;;;;;;;;;5055147;28;20439;-47
2024/03/25 10:55:29;;;;;;;;;;;;;;;;;;5073760;28;19913;-47
2024/03/25 10:57:56;;;;;;;;;;;;;;;;;;5062960;22;20016;-45
2024/03/25 11:00:22;;;;;;;;;;;;;;;;;;5033657;28;19979;-46
2024/03/25 11:02:48;;;;;;;;;;;;;;;;;;5015911;28;19909;-46
2024/03/25 11:05:14;;;;;;;;;;;;;;;;;;5033654;28;19978;-45
2024/03/25 11:07:42;;;;;;;;;;;;;;;;;;5033624;28;20331;-47
2024/03/25 11:10:09;;;;;;;;;;;;;;;;;;4999737;28;19990;-47
2024/03/25 11:12:35;;;;;;;;;;;;;;;;;;5033435;28;19952;-49
2024/03/25 11:15:03;;;;;;;;;;;;;;;;;;5033545;28;19917;-48
2024/03/25 11:17:29;;;;;;;;;;;;;;;;;;5033348;28;19917;-46
2024/03/25 11:19:55;;;;;;;;;;;;;;;;;;5032635;28;19925;-45
2024/03/25 11:22:21;;;;;;;;;;;;;;;;;;5031373;28;19964;-51
2024/03/25 11:24:47;;;;;;;;;;;;;;;;;;5033384;28;20051;-49
2024/03/25 11:27:15;;;;;;;;;;;;;;;;;;5021104;28;19913;-48
2024/03/25 11:29:41;;;;;;;;;;;;;;;;;;5018283;28;19917;-47
2024/03/25 11:32:07;;;;;;;;;;;;;;;;;;5018059;28;19923;-48
2024/03/25 11:34:34;;;;;;;;;;;;;;;;;;5019970;28;19917;-48
2024/03/25 11:37:00;;;;;;;;;;;;;;;;;;5016089;28;19921;-46
2024/03/25 11:39:28;;;;;;;;;;;;;;;;;;4983416;28;19917;-48
2024/03/25 11:41:54;;;;;;;;;;;;;;;;;;4994849;28;19917;-51
2024/03/25 11:44:22;;;;;;;;;;;;;;;;;;5012439;28;20002;-50
2024/03/25 11:46:49;;;;;;;;;;;;;;;;;;5013304;28;19921;-50
2024/03/25 11:49:15;;;;;;;;;;;;;;;;;;5014993;28;19960;-50
2024/03/25 11:51:41;;;;;;;;;;;;;;;;;;5012309;28;19914;-47
2024/03/25 11:54:07;;;;;;;;;;;;;;;;;;5016128;28;19962;-53
2024/03/25 11:56:33;;;;;;;;;;;;;;;;;;5015852;28;19919;-47
2024/03/25 11:59:00;;;;;;;;;;;;;;;;;;5015188;28;19921;-51
2024/03/25 12:01:26;;;;;;;;;;;;;;;;;;5014261;28;19992;-47
2024/03/25 12:03:52;;;;;;;;;;;;;;;;;;5012760;28;19920;-47
2024/03/25 12:06:18;;;;;;;;;;;;;;;;;;4987974;28;20059;-51
2024/03/25 12:11:17;;;;;;;;;;;;;;;;;;5022045;28;19968;-51
2024/03/25 12:11:30;;;;;;;;;;;;;;;;;;5023516;28;20416;-52
2024/03/25 12:13:57;;;;;;;;;;;;;;;;;;5022736;28;19940;-50
2024/03/25 12:16:23;;;;;;;;;;;;;;;;;;5004194;28;19921;-49
2024/03/25 12:18:49;;;;;;;;;;;;;;;;;;5022297;28;19944;-49
2024/03/25 12:21:15;;;;;;;;;;;;;;;;;;5014610;28;20416;-48
2024/03/25 12:23:41;;;;;;;;;;;;;;;;;;5023889;28;20012;-48
2024/03/25 12:26:08;;;;;;;;;;;;;;;;;;5022004;28;20493;-47
2024/03/25 12:28:36;;;;;;;;;;;;;;;;;;5022474;28;19921;-49
2024/03/25 12:31:02;;;;;;;;;;;;;;;;;;5018549;28;19917;-47
2024/03/25 12:33:28;;;;;;;;;;;;;;;;;;5011631;28;20678;-48
2024/03/25 12:35:55;;;;;;;;;;;;;;;;;;4997159;28;19978;-52
2024/03/25 12:38:21;;;;;;;;;;;;;;;;;;5012354;28;20009;-50
2024/03/25 12:40:47;;;;;;;;;;;;;;;;;;5020608;28;19979;-52
2024/03/25 12:43:13;;;;;;;;;;;;;;;;;;5022237;28;19921;-47
2024/03/25 12:45:39;;;;;;;;;;;;;;;;;;5020650;28;19917;-51
2024/03/25 12:48:05;;;;;;;;;;;;;;;;;;5021972;28;19921;-52
2024/03/25 12:50:31;;;;;;;;;;;;;;;;;;5022703;28;19922;-51
2024/03/25 12:52:58;;;;;;;;;;;;;;;;;;5023239;28;19921;-52
2024/03/25 12:55:24;;;;;;;;;;;;;;;;;;5020898;28;19917;-52
2024/03/25 12:57:50;;;;;;;;;;;;;;;;;;5011877;28;19925;-48
2024/03/25 13:00:16;;;;;;;;;;;;;;;;;;5001773;28;19924;-48
2024/03/25 13:02:42;;;;;;;;;;;;;;;;;;5011417;28;19960;-54
2024/03/25 13:05:08;;;;;;;;;;;;;;;;;;4996469;28;19963;-48
2024/03/25 13:07:34;;;;;;;;;;;;;;;;;;5021726;28;19921;-50
2024/03/25 13:10:00;;;;;;;;;;;;;;;;;;5023168;28;20443;-49
2024/03/25 13:12:26;;;;;;;;;;;;;;;;;;5005108;28;20396;-52
2024/03/25 13:14:52;;;;;;;;;;;;;;;;;;5014544;28;19928;-50
2024/03/25 13:17:18;;;;;;;;;;;;;;;;;;5016326;28;19917;-52
2024/03/25 13:19:44;;;;;;;;;;;;;;;;;;5003652;28;19930;-53
2024/03/25 13:22:10;;;;;;;;;;;;;;;;;;5026732;28;19948;-52
2024/03/25 13:24:36;;;;;;;;;;;;;;;;;;5025746;28;20008;-50
2024/03/25 13:27:02;;;;;;;;;;;;;;;;;;5025766;28;19928;-53
2024/03/25 13:29:29;;;;;;;;;;;;;;;;;;5025777;28;19917;-52
2024/03/25 13:31:55;;;;;;;;;;;;;;;;;;5017537;28;19918;-53
2024/03/25 13:34:21;;;;;;;;;;;;;;;;;;5016952;28;19921;-52
2024/03/25 13:36:47;;;;;;;;;;;;;;;;;;4999282;28;19953;-51
2024/03/25 13:39:13;;;;;;;;;;;;;;;;;;5012586;28;19918;-49
2024/03/25 13:41:39;;;;;;;;;;;;;;;;;;4998979;28;20390;-50
2024/03/25 13:44:05;;;;;;;;;;;;;;;;;;5014775;28;19992;-50
2024/03/25 13:46:31;;;;;;;;;;;;;;;;;;5022492;28;19917;-55
2024/03/25 13:48:57;;;;;;;;;;;;;;;;;;5014206;28;19932;-55
2024/03/25 13:51:23;;;;;;;;;;;;;;;;;;5015620;28;19928;-49
2024/03/25 13:53:50;;;;;;;;;;;;;;;;;;5014786;28;19959;-53
2024/03/25 13:56:16;;;;;;;;;;;;;;;;;;5002748;28;20396;-47
2024/03/25 13:58:42;;;;;;;;;;;;;;;;;;5025579;28;19921;-46
2024/03/25 14:01:09;;;;;;;;;;;;;;;;;;5022000;28;19925;-50
2024/03/25 14:03:35;;;;;;;;;;;;;;;;;;5015468;28;20309;-46
2024/03/25 14:06:01;;;;;;;;;;;;;;;;;;5020856;28;19983;-47
2024/03/25 14:08:27;;;;;;;;;;;;;;;;;;5015040;28;19964;-49
2024/03/25 14:10:53;;;;;;;;;;;;;;;;;;5030634;28;20293;-48
2024/03/25 14:13:20;;;;;;;;;;;;;;;;;;4997022;28;19913;-48
2024/03/25 14:15:46;;;;;;;;;;;;;;;;;;5004932;28;19909;-48
2024/03/25 14:18:12;;;;;;;;;;;;;;;;;;5023018;28;19917;-47
2024/03/25 14:20:38;;;;;;;;;;;;;;;;;;5015412;28;19921;-49
2024/03/25 14:23:04;;;;;;;;;;;;;;;;;;5005204;28;20381;-47
2024/03/25 14:25:30;;;;;;;;;;;;;;;;;;5022165;28;19922;-47
2024/03/25 14:27:57;;;;;;;;;;;;;;;;;;5026103;28;20016;-45
2024/03/25 14:30:23;;;;;;;;;;;;;;;;;;5021385;28;19914;-50
2024/03/25 14:32:49;;;;;;;;;;;;;;;;;;5034324;28;19917;-51
2024/03/25 14:35:15;;;;;;;;;;;;;;;;;;5025787;28;20000;-51
2024/03/25 14:37:41;;;;;;;;;;;;;;;;;;5018163;28;19996;-52
2024/03/25 14:40:08;;;;;;;;;;;;;;;;;;5025994;28;19925;-48
2024/03/25 14:42:34;;;;;;;;;;;;;;;;;;5009458;28;19983;-48
2024/03/25 14:45:00;;;;;;;;;;;;;;;;;;5008707;28;19921;-48
2024/03/25 14:47:26;;;;;;;;;;;;;;;;;;5027778;28;19996;-48
2024/03/25 14:49:53;;;;;;;;;;;;;;;;;;5015493;28;19910;-48
2024/03/25 14:52:19;;;;;;;;;;;;;;;;;;5016425;28;19917;-52
2024/03/25 14:54:45;;;;;;;;;;;;;;;;;;5016264;28;20468;-47
2024/03/25 14:57:11;;;;;;;;;;;;;;;;;;5033692;28;19909;-49
2024/03/25 14:59:37;;;;;;;;;;;;;;;;;;5016119;28;19944;-52
2024/03/25 15:02:03;;;;;;;;;;;;;;;;;;5033933;28;19910;-49
2024/03/25 15:04:30;;;;;;;;;;;;;;;;;;5033950;28;19917;-49
2024/03/25 15:06:56;;;;;;;;;;;;;;;;;;5033733;28;19916;-50
2024/03/25 15:09:22;;;;;;;;;;;;;;;;;;5032462;28;19994;-48
2024/03/25 15:11:48;;;;;;;;;;;;;;;;;;5033620;28;19913;-50
2024/03/25 15:14:14;;;;;;;;;;;;;;;;;;5033697;28;19917;-50
2024/03/25 15:16:40;;;;;;;;;;;;;;;;;;5033812;28;19916;-49
2024/03/25 15:19:09;;;;;;;;;;;;;;;;;;5033208;28;19913;-51
2024/03/25 15:21:38;;;;;;;;;;;;;;;;;;5033444;28;19962;-48
2024/03/25 15:24:04;;;;;;;;;;;;;;;;;;5033471;28;19919;-53
2024/03/25 15:26:30;;;;;;;;;;;;;;;;;;5032196;28;19916;-50
2024/03/25 15:28:57;;;;;;;;;;;;;;;;;;5033029;28;19913;-50
2024/03/25 15:31:23;;;;;;;;;;;;;;;;;;5031018;28;20356;-48
2024/03/25 15:33:49;;;;;;;;;;;;;;;;;;5031974;28;20266;-49
2024/03/25 15:36:15;;;;;;;;;;;;;;;;;;5033598;28;19909;-49
2024/03/25 15:38:41;;;;;;;;;;;;;;;;;;5032403;28;20062;-49
2024/03/25 15:41:07;;;;;;;;;;;;;;;;;;5015978;28;19920;-46
2024/03/25 15:43:33;;;;;;;;;;;;;;;;;;5033118;28;19914;-46
2024/03/25 15:45:59;;;;;;;;;;;;;;;;;;5005275;28;19909;-43
2024/03/25 15:48:26;;;;;;;;;;;;;;;;;;5020535;28;19913;-48
2024/03/25 15:50:52;;;;;;;;;;;;;;;;;;5024734;28;19913;-48
2024/03/25 15:53:19;;;;;;;;;;;;;;;;;;5018596;28;19921;-50
2024/03/25 15:55:45;;;;;;;;;;;;;;;;;;5002085;28;19964;-48
2024/03/25 15:58:11;;;;;;;;;;;;;;;;;;5025845;28;19925;-48
2024/03/25 16:00:37;;;;;;;;;;;;;;;;;;5016644;28;19967;-51
2024/03/25 16:03:03;;;;;;;;;;;;;;;;;;5026317;28;19956;-49
2024/03/25 16:05:29;;;;;;;;;;;;;;;;;;5017813;28;20396;-48
2024/03/25 16:07:55;;;;;;;;;;;;;;;;;;5026564;28;19913;-49
2024/03/25 16:10:21;;;;;;;;;;;;;;;;;;5032517;28;19919;-48
2024/03/25 16:12:48;;;;;;;;;;;;;;;;;;5021542;28;19927;-48
2024/03/25 16:15:14;;;;;;;;;;;;;;;;;;5006863;28;19971;-49
2024/03/25 16:17:41;;;;;;;;;;;;;;;;;;5021864;28;19951;-49
2024/03/25 16:20:07;;;;;;;;;;;;;;;;;;5043685;28;19917;-50
2024/03/25 16:22:33;;;;;;;;;;;;;;;;;;5018473;28;20336;-50
2024/03/25 16:24:59;;;;;;;;;;;;;;;;;;5019797;28;19924;-48
2024/03/25 16:27:25;;;;;;;;;;;;;;;;;;5016322;28;19917;-48
2024/03/25 16:29:51;;;;;;;;;;;;;;;;;;5013697;28;19917;-47
2024/03/25 16:32:17;;;;;;;;;;;;;;;;;;5021545;28;19948;-50
2024/03/25 16:34:44;;;;;;;;;;;;;;;;;;5025322;28;19921;-47
2024/03/25 16:37:10;;;;;;;;;;;;;;;;;;5015091;28;19917;-47
2024/03/25 16:39:37;;;;;;;;;;;;;;;;;;5020244;28;19917;-49
2024/03/25 16:42:03;;;;;;;;;;;;;;;;;;5040172;28;20070;-49
2024/03/25 16:44:29;;;;;;;;;;;;;;;;;;5045901;28;20309;-48
2024/03/25 16:46:55;;;;;;;;;;;;;;;;;;5019472;28;19920;-48